Wetterdaten: Woche 29.11.10 - 05.12.10 (KW48)
Datum Zeit Temperatur Luftfeuchte Luftdruck Niederschlag Windrichtung Sonnenschein Solar Wind
29.11.2010 00:00 -2,0 C 93 % 999,9 hPa 0,0 l/m W-NW 0,00 h 0 W/m 3,3 km/h (1 Bft)
29.11.2010 01:00 -2,1 C 93 % 999,9 hPa 0,0 l/m N 0,00 h 0 W/m 3,3 km/h (1 Bft)
29.11.2010 02:00 -2,2 C 94 % 1000,0 hPa 0,4 l/m N 0,00 h 0 W/m 2,1 km/h (1 Bft)
29.11.2010 03:00 -2,3 C 94 % 1000,3 hPa 0,6 l/m W-NW 0,00 h 0 W/m 2,0 km/h (1 Bft)
29.11.2010 04:00 -2,5 C 94 % 1000,4 hPa 0,8 l/m N 0,00 h 0 W/m 1,2 km/h (1 Bft)
29.11.2010 05:00 -2,6 C 95 % 1000,7 hPa 1,4 l/m SW 0,00 h 0 W/m 4,1 km/h (1 Bft)
29.11.2010 06:00 -2,5 C 95 % 1001,3 hPa 0,8 l/m W-SW 0,00 h 0 W/m 5,7 km/h (1 Bft)
29.11.2010 07:00 -2,3 C 95 % 1002,1 hPa 0,2 l/m SW 0,00 h 0 W/m 6,5 km/h (2 Bft)
29.11.2010 08:00 -2,0 C 95 % 1003,0 hPa 0,8 l/m W-SW 0,00 h 8 W/m 9,3 km/h (2 Bft)
29.11.2010 09:00 -1,3 C 95 % 1003,5 hPa 0,8 l/m W-SW 0,00 h 20 W/m 11,3 km/h (2 Bft)
29.11.2010 10:00 -0,3 C 93 % 1004,0 hPa 0,6 l/m W-SW 0,00 h 35 W/m 15,2 km/h (3 Bft)
29.11.2010 11:00 0,8 C 88 % 1004,4 hPa 0,0 l/m W-SW 0,00 h 101 W/m 18,6 km/h (3 Bft)
29.11.2010 12:00 0,9 C 84 % 1004,8 hPa 0,0 l/m W 0,00 h 142 W/m 20,5 km/h (4 Bft)
29.11.2010 13:00 0,6 C 83 % 1005,3 hPa 0,0 l/m W-SW 0,00 h 133 W/m 24,0 km/h (4 Bft)
29.11.2010 14:00 0,7 C 80 % 1005,7 hPa 0,0 l/m W-SW 0,67 h 172 W/m 22,3 km/h (4 Bft)
29.11.2010 15:00 0,4 C 79 % 1006,0 hPa 0,0 l/m W-SW 0,33 h 56 W/m 18,9 km/h (3 Bft)
29.11.2010 16:00 -0,7 C 82 % 1006,4 hPa 0,0 l/m W-SW 0,00 h 9 W/m 15,3 km/h (3 Bft)
29.11.2010 17:00 -1,1 C 83 % 1007,5 hPa 0,0 l/m W-SW 0,00 h 0 W/m 16,5 km/h (3 Bft)
29.11.2010 18:00 -1,2 C 82 % 1008,2 hPa 0,0 l/m W-SW 0,00 h 0 W/m 11,2 km/h (2 Bft)
29.11.2010 19:00 -1,9 C 83 % 1008,8 hPa 0,0 l/m SW 0,00 h 0 W/m 6,4 km/h (2 Bft)
29.11.2010 20:00 -2,8 C 86 % 1009,4 hPa 0,0 l/m W-SW 0,00 h 0 W/m 12,2 km/h (2 Bft)
29.11.2010 21:00 -2,9 C 86 % 1010,1 hPa 0,0 l/m W-SW 0,00 h 0 W/m 10,3 km/h (2 Bft)
29.11.2010 22:00 -3,3 C 86 % 1010,7 hPa 0,0 l/m W-SW 0,00 h 0 W/m 7,9 km/h (2 Bft)
29.11.2010 23:00 -4,2 C 84 % 1011,3 hPa 0,0 l/m N 0,00 h 0 W/m 0,4 km/h (0 Bft)
30.11.2010 00:00 -5,3 C 88 % 1011,5 hPa 0,0 l/m N 0,00 h 0 W/m 0,0 km/h (0 Bft)
30.11.2010 01:00 -5,5 C 91 % 1011,4 hPa 0,0 l/m N 0,00 h 0 W/m 0,0 km/h (0 Bft)
30.11.2010 02:00 -6,6 C 89 % 1011,4 hPa 0,0 l/m N 0,00 h 0 W/m 0,1 km/h (0 Bft)
30.11.2010 03:00 -7,8 C 89 % 1011,3 hPa 0,0 l/m N 0,00 h 0 W/m 0,0 km/h (0 Bft)
30.11.2010 04:00 -8,9 C 89 % 1011,5 hPa 0,0 l/m N 0,00 h 0 W/m 0,0 km/h (0 Bft)
30.11.2010 05:00 -9,8 C 89 % 1011,3 hPa 0,0 l/m N 0,00 h 0 W/m 0,1 km/h (0 Bft)
30.11.2010 06:00 -10,4 C 90 % 1011,2 hPa 0,0 l/m N 0,00 h 0 W/m 0,5 km/h (0 Bft)
30.11.2010 07:00 -10,9 C 90 % 1011,3 hPa 0,0 l/m N 0,00 h 5 W/m 0,7 km/h (0 Bft)
30.11.2010 08:00 -10,9 C 92 % 1011,4 hPa 0,0 l/m N-NW 0,00 h 20 W/m 5,1 km/h (1 Bft)
30.11.2010 09:00 -10,0 C 93 % 1011,0 hPa 0,0 l/m N-NW 0,00 h 42 W/m 6,1 km/h (2 Bft)
30.11.2010 10:00 -8,3 C 94 % 1010,7 hPa 0,0 l/m N-NW 0,00 h 54 W/m 5,7 km/h (1 Bft)
30.11.2010 11:00 -5,9 C 92 % 1009,8 hPa 0,0 l/m N 0,25 h 133 W/m 6,9 km/h (2 Bft)
30.11.2010 12:00 -3,7 C 85 % 1008,8 hPa 0,0 l/m NO 0,67 h 223 W/m 10,2 km/h (2 Bft)
30.11.2010 13:00 -2,8 C 80 % 1008,3 hPa 0,0 l/m NO 0,67 h 230 W/m 11,7 km/h (2 Bft)
30.11.2010 14:00 -2,9 C 81 % 1007,4 hPa 0,0 l/m NO 0,25 h 121 W/m 13,4 km/h (3 Bft)
30.11.2010 15:00 -3,2 C 84 % 1007,0 hPa 0,0 l/m NO 0,00 h 48 W/m 10,7 km/h (2 Bft)
30.11.2010 16:00 -3,5 C 86 % 1007,0 hPa 0,0 l/m NO 0,00 h 10 W/m 12,6 km/h (3 Bft)
30.11.2010 17:00 -3,7 C 88 % 1006,5 hPa 0,0 l/m O-NO 0,00 h 0 W/m 15,6 km/h (3 Bft)
30.11.2010 18:00 -3,7 C 89 % 1005,5 hPa 0,0 l/m NO 0,00 h 0 W/m 20,2 km/h (4 Bft)
30.11.2010 19:00 -3,8 C 89 % 1004,9 hPa 0,0 l/m NO 0,00 h 0 W/m 19,2 km/h (3 Bft)
30.11.2010 20:00 -3,9 C 90 % 1004,5 hPa 0,0 l/m O 0,00 h 0 W/m 18,0 km/h (3 Bft)
30.11.2010 21:00 -4,0 C 90 % 1004,4 hPa 0,0 l/m NO 0,00 h 0 W/m 15,8 km/h (3 Bft)
30.11.2010 22:00 -4,1 C 91 % 1003,7 hPa 0,0 l/m O-NO 0,00 h 0 W/m 16,8 km/h (3 Bft)
30.11.2010 23:00 -3,9 C 90 % 1003,3 hPa 0,0 l/m O-NO 0,00 h 0 W/m 16,1 km/h (3 Bft)
01.12.2010 00:00 -3,8 C 91 % 1002,8 hPa 0,0 l/m O 0,00 h 0 W/m 13,2 km/h (3 Bft)
01.12.2010 01:00 -3,6 C 91 % 1002,1 hPa 0,0 l/m NO 0,00 h 0 W/m 11,4 km/h (2 Bft)
01.12.2010 02:00 -3,6 C 91 % 1001,4 hPa 0,0 l/m O-NO 0,00 h 0 W/m 15,0 km/h (3 Bft)
01.12.2010 03:00 -3,7 C 92 % 1001,0 hPa 0,0 l/m O 0,00 h 0 W/m 17,2 km/h (3 Bft)
01.12.2010 04:00 -4,0 C 92 % 1000,0 hPa 0,0 l/m O 0,00 h 0 W/m 15,7 km/h (3 Bft)
01.12.2010 05:00 -4,1 C 93 % 999,3 hPa 0,0 l/m NO 0,00 h 0 W/m 14,1 km/h (3 Bft)
01.12.2010 06:00 -4,2 C 94 % 998,6 hPa 0,0 l/m O-NO 0,00 h 0 W/m 16,1 km/h (3 Bft)
01.12.2010 07:00 -4,2 C 94 % 998,2 hPa 0,0 l/m NO 0,00 h 0 W/m 14,2 km/h (3 Bft)
01.12.2010 08:00 -4,4 C 94 % 998,0 hPa 0,0 l/m NO 0,00 h 10 W/m 11,3 km/h (2 Bft)
01.12.2010 09:00 -4,3 C 95 % 997,1 hPa 0,0 l/m O-NO 0,00 h 26 W/m 13,3 km/h (3 Bft)
01.12.2010 10:00 -4,2 C 95 % 997,3 hPa 0,0 l/m NO 0,00 h 37 W/m 10,8 km/h (2 Bft)
01.12.2010 11:00 -4,0 C 95 % 997,1 hPa 0,0 l/m NO 0,00 h 54 W/m 9,7 km/h (2 Bft)
01.12.2010 12:00 -3,7 C 94 % 996,3 hPa 0,0 l/m NO 0,00 h 25 W/m 9,3 km/h (2 Bft)
01.12.2010 13:00 -3,5 C 93 % 995,8 hPa 0,0 l/m NO 0,00 h 24 W/m 9,9 km/h (2 Bft)
01.12.2010 14:00 -3,5 C 92 % 995,7 hPa 0,8 l/m NO 0,00 h 21 W/m 6,0 km/h (2 Bft)
01.12.2010 15:00 -3,5 C 91 % 996,0 hPa 1,2 l/m O-NO 0,00 h 6 W/m 4,4 km/h (1 Bft)
01.12.2010 16:00 -3,9 C 92 % 996,2 hPa 0,6 l/m NW 0,00 h 0 W/m 3,3 km/h (1 Bft)
01.12.2010 17:00 -4,3 C 92 % 997,0 hPa 0,8 l/m NW 0,00 h 0 W/m 4,0 km/h (1 Bft)
01.12.2010 18:00 -4,5 C 93 % 997,5 hPa 0,6 l/m N 0,00 h 0 W/m 0,9 km/h (0 Bft)
01.12.2010 19:00 -4,5 C 93 % 998,5 hPa 0,8 l/m N 0,00 h 0 W/m 0,8 km/h (0 Bft)
01.12.2010 20:00 -4,5 C 94 % 999,5 hPa 0,8 l/m N 0,00 h 0 W/m 0,9 km/h (0 Bft)
01.12.2010 21:00 -4,4 C 94 % 1000,5 hPa 0,8 l/m W-SW 0,00 h 0 W/m 4,8 km/h (1 Bft)
01.12.2010 22:00 -4,3 C 95 % 1001,4 hPa 0,8 l/m W-SW 0,00 h 0 W/m 5,5 km/h (1 Bft)
01.12.2010 23:00 -4,0 C 95 % 1002,3 hPa 1,2 l/m W-SW 0,00 h 0 W/m 5,3 km/h (1 Bft)
02.12.2010 00:00 -3,7 C 96 % 1003,0 hPa 1,0 l/m W-SW 0,00 h 0 W/m 9,3 km/h (2 Bft)
02.12.2010 01:00 -3,3 C 95 % 1003,6 hPa 0,8 l/m SW 0,00 h 0 W/m 8,3 km/h (2 Bft)
02.12.2010 02:00 -3,3 C 95 % 1004,3 hPa 0,4 l/m SW 0,00 h 0 W/m 3,3 km/h (1 Bft)
02.12.2010 03:00 -3,3 C 95 % 1004,3 hPa 0,2 l/m SW 0,00 h 0 W/m 4,3 km/h (1 Bft)
02.12.2010 04:00 -3,3 C 95 % 1004,5 hPa 0,0 l/m SW 0,00 h 0 W/m 6,3 km/h (2 Bft)
02.12.2010 05:00 -3,2 C 95 % 1005,2 hPa 0,0 l/m SW 0,00 h 0 W/m 6,0 km/h (2 Bft)
02.12.2010 06:00 -3,0 C 95 % 1005,8 hPa 0,0 l/m W-SW 0,00 h 0 W/m 5,9 km/h (2 Bft)
02.12.2010 07:00 -2,8 C 95 % 1006,1 hPa 0,0 l/m W-SW 0,00 h 0 W/m 5,2 km/h (1 Bft)
02.12.2010 08:00 -2,7 C 94 % 1006,8 hPa 0,0 l/m SW 0,00 h 8 W/m 3,7 km/h (1 Bft)
02.12.2010 09:00 -2,3 C 94 % 1007,4 hPa 0,0 l/m W-SW 0,00 h 16 W/m 3,9 km/h (1 Bft)
02.12.2010 10:00 -1,5 C 92 % 1007,9 hPa 0,2 l/m W-NW 0,00 h 23 W/m 4,0 km/h (1 Bft)
02.12.2010 11:00 -0,6 C 85 % 1008,1 hPa 0,0 l/m S-SW 0,00 h 27 W/m 4,7 km/h (1 Bft)
02.12.2010 12:00 -0,5 C 85 % 1007,8 hPa 0,0 l/m S-SW 0,00 h 40 W/m 4,5 km/h (1 Bft)
02.12.2010 13:00 -0,1 C 81 % 1007,3 hPa 0,0 l/m S-SW 0,00 h 70 W/m 4,5 km/h (1 Bft)
02.12.2010 14:00 -0,6 C 82 % 1007,1 hPa 0,0 l/m SW 0,00 h 54 W/m 4,7 km/h (1 Bft)
02.12.2010 15:00 -1,2 C 83 % 1007,2 hPa 0,0 l/m SW 0,00 h 28 W/m 2,0 km/h (1 Bft)
02.12.2010 16:00 -2,3 C 84 % 1007,3 hPa 0,0 l/m N 0,00 h 10 W/m 0,1 km/h (0 Bft)
02.12.2010 17:00 -4,4 C 84 % 1007,9 hPa 0,0 l/m N 0,00 h 0 W/m 0,1 km/h (0 Bft)
02.12.2010 18:00 -6,3 C 86 % 1008,0 hPa 0,0 l/m N 0,00 h 0 W/m 0,0 km/h (0 Bft)
02.12.2010 19:00 -7,7 C 87 % 1008,4 hPa 0,0 l/m N 0,00 h 0 W/m 0,0 km/h (0 Bft)
02.12.2010 20:00 -8,3 C 89 % 1008,7 hPa 0,0 l/m N 0,00 h 0 W/m 0,0 km/h (0 Bft)
02.12.2010 21:00 -8,9 C 89 % 1008,7 hPa 0,0 l/m N-NW 0,00 h 0 W/m 1,2 km/h (1 Bft)
02.12.2010 22:00 -10,3 C 90 % 1008,7 hPa 0,0 l/m N-NW 0,00 h 0 W/m 2,4 km/h (1 Bft)
02.12.2010 23:00 -10,7 C 91 % 1008,8 hPa 0,0 l/m N 0,00 h 0 W/m 1,1 km/h (0 Bft)
03.12.2010 00:00 -10,6 C 92 % 1008,6 hPa 0,0 l/m N 0,00 h 0 W/m 3,9 km/h (1 Bft)
03.12.2010 01:00 -10,4 C 93 % 1008,8 hPa 0,0 l/m N 0,00 h 0 W/m 1,6 km/h (1 Bft)
03.12.2010 02:00 -9,7 C 94 % 1009,3 hPa 0,0 l/m N 0,00 h 0 W/m 1,5 km/h (1 Bft)
03.12.2010 03:00 -9,0 C 94 % 1009,1 hPa 0,0 l/m N 0,00 h 0 W/m 1,1 km/h (0 Bft)
03.12.2010 04:00 -8,4 C 95 % 1009,1 hPa 0,0 l/m N 0,00 h 0 W/m 0,4 km/h (0 Bft)
03.12.2010 05:00 -8,3 C 94 % 1008,8 hPa 0,0 l/m N 0,00 h 0 W/m 0,3 km/h (0 Bft)
03.12.2010 06:00 -8,3 C 94 % 1009,1 hPa 0,0 l/m N 0,00 h 0 W/m 0,1 km/h (0 Bft)
03.12.2010 07:00 -7,9 C 95 % 1009,2 hPa 0,0 l/m N 0,00 h 0 W/m 0,4 km/h (0 Bft)
03.12.2010 08:00 -7,3 C 95 % 1009,4 hPa 0,0 l/m N 0,00 h 10 W/m 0,3 km/h (0 Bft)
03.12.2010 09:00 -6,2 C 96 % 1009,6 hPa 0,0 l/m N 0,00 h 26 W/m 1,2 km/h (1 Bft)
03.12.2010 10:00 -5,4 C 96 % 1009,7 hPa 0,0 l/m N 0,00 h 43 W/m 0,5 km/h (0 Bft)
03.12.2010 11:00 -5,1 C 95 % 1009,6 hPa 0,0 l/m N 0,00 h 51 W/m 2,1 km/h (1 Bft)
03.12.2010 12:00 -4,9 C 95 % 1009,4 hPa 0,0 l/m N 0,00 h 56 W/m 2,3 km/h (1 Bft)
03.12.2010 13:00 -4,8 C 93 % 1009,1 hPa 0,0 l/m N 0,00 h 52 W/m 2,9 km/h (1 Bft)
03.12.2010 14:00 -4,8 C 92 % 1009,6 hPa 0,0 l/m O 0,00 h 55 W/m 3,1 km/h (1 Bft)
03.12.2010 15:00 -4,9 C 92 % 1010,4 hPa 0,0 l/m O 0,00 h 19 W/m 2,9 km/h (1 Bft)
03.12.2010 16:00 -5,3 C 92 % 1011,3 hPa 0,0 l/m W-NW 0,00 h 0 W/m 3,2 km/h (1 Bft)
03.12.2010 17:00 -5,8 C 93 % 1012,4 hPa 0,0 l/m W-SW 0,00 h 0 W/m 2,7 km/h (1 Bft)
03.12.2010 18:00 -6,2 C 93 % 1013,3 hPa 0,0 l/m W-SW 0,00 h 0 W/m 4,0 km/h (1 Bft)
03.12.2010 19:00 -6,5 C 94 % 1014,2 hPa 0,0 l/m W-SW 0,00 h 0 W/m 2,9 km/h (1 Bft)
03.12.2010 20:00 -6,4 C 94 % 1015,1 hPa 0,0 l/m N 0,00 h 0 W/m 0,4 km/h (0 Bft)
03.12.2010 21:00 -6,2 C 94 % 1015,8 hPa 0,0 l/m W-SW 0,00 h 0 W/m 1,9 km/h (1 Bft)
03.12.2010 22:00 -5,8 C 95 % 1016,4 hPa 0,0 l/m SW 0,00 h 0 W/m 4,0 km/h (1 Bft)
03.12.2010 23:00 -5,4 C 94 % 1016,9 hPa 0,0 l/m SW 0,00 h 0 W/m 3,5 km/h (1 Bft)
04.12.2010 00:00 -5,3 C 94 % 1017,2 hPa 0,0 l/m SW 0,00 h 0 W/m 1,6 km/h (1 Bft)
04.12.2010 01:00 -5,2 C 94 % 1017,4 hPa 0,0 l/m W-SW 0,00 h 0 W/m 6,3 km/h (2 Bft)
04.12.2010 02:00 -5,2 C 94 % 1018,1 hPa 0,0 l/m W-SW 0,00 h 0 W/m 4,1 km/h (1 Bft)
04.12.2010 03:00 -5,1 C 94 % 1018,3 hPa 0,0 l/m W-SW 0,00 h 0 W/m 1,3 km/h (1 Bft)
04.12.2010 04:00 -5,1 C 94 % 1018,8 hPa 0,0 l/m N 0,00 h 0 W/m 2,9 km/h (1 Bft)
04.12.2010 05:00 -5,4 C 93 % 1019,2 hPa 0,0 l/m N 0,00 h 0 W/m 0,9 km/h (0 Bft)
04.12.2010 06:00 -6,3 C 93 % 1019,8 hPa 0,0 l/m N 0,00 h 0 W/m 0,1 km/h (0 Bft)
04.12.2010 07:00 -6,7 C 92 % 1020,6 hPa 0,0 l/m W-SW 0,00 h 0 W/m 0,5 km/h (0 Bft)
04.12.2010 08:00 -7,2 C 93 % 1021,2 hPa 0,0 l/m N 0,00 h 11 W/m 0,3 km/h (0 Bft)
04.12.2010 09:00 -6,4 C 94 % 1021,6 hPa 0,0 l/m N 0,00 h 50 W/m 0,1 km/h (0 Bft)
04.12.2010 10:00 -4,8 C 95 % 1021,9 hPa 0,0 l/m N 0,00 h 76 W/m 0,9 km/h (0 Bft)
04.12.2010 11:00 -3,1 C 92 % 1021,7 hPa 0,0 l/m W-SW 0,00 h 101 W/m 2,8 km/h (1 Bft)
04.12.2010 12:00 -1,7 C 85 % 1021,7 hPa 0,0 l/m SW 0,17 h 162 W/m 10,5 km/h (2 Bft)
04.12.2010 13:00 -1,1 C 83 % 1021,4 hPa 0,0 l/m W-NW 0,25 h 126 W/m 8,5 km/h (2 Bft)
04.12.2010 14:00 -1,5 C 80 % 1021,0 hPa 0,0 l/m S-SW 0,42 h 118 W/m 6,9 km/h (2 Bft)
04.12.2010 15:00 -2,2 C 81 % 1020,8 hPa 0,0 l/m SW 0,00 h 38 W/m 4,7 km/h (1 Bft)
04.12.2010 16:00 -3,6 C 82 % 1021,2 hPa 0,0 l/m N 0,00 h 9 W/m 0,3 km/h (0 Bft)
04.12.2010 17:00 -5,6 C 84 % 1021,6 hPa 0,0 l/m N 0,00 h 0 W/m 0,0 km/h (0 Bft)
04.12.2010 18:00 -7,3 C 86 % 1021,6 hPa 0,0 l/m N 0,00 h 0 W/m 0,0 km/h (0 Bft)
04.12.2010 19:00 -8,6 C 87 % 1021,4 hPa 0,0 l/m N 0,00 h 0 W/m 0,0 km/h (0 Bft)
04.12.2010 20:00 -9,8 C 87 % 1021,1 hPa 0,0 l/m N 0,00 h 0 W/m 0,0 km/h (0 Bft)
04.12.2010 21:00 -10,5 C 89 % 1020,8 hPa 0,0 l/m N 0,00 h 0 W/m 0,0 km/h (0 Bft)
04.12.2010 22:00 -11,0 C 89 % 1020,4 hPa 0,0 l/m N 0,00 h 0 W/m 0,0 km/h (0 Bft)
04.12.2010 23:00 -11,5 C 89 % 1020,1 hPa 0,0 l/m N 0,00 h 0 W/m 0,0 km/h (0 Bft)
05.12.2010 00:00 -11,7 C 90 % 1020,0 hPa 0,0 l/m N 0,00 h 0 W/m 0,0 km/h (0 Bft)
05.12.2010 01:00 -11,4 C 91 % 1019,2 hPa 0,0 l/m N 0,00 h 0 W/m 0,3 km/h (0 Bft)
05.12.2010 02:00 -10,9 C 92 % 1018,5 hPa 0,0 l/m N 0,00 h 0 W/m 0,1 km/h (0 Bft)
05.12.2010 03:00 -9,8 C 94 % 1018,1 hPa 0,0 l/m N 0,00 h 0 W/m 0,1 km/h (0 Bft)
05.12.2010 04:00 -9,1 C 94 % 1017,3 hPa 0,0 l/m N 0,00 h 0 W/m 0,3 km/h (0 Bft)
05.12.2010 05:00 -8,8 C 93 % 1016,5 hPa 0,0 l/m N 0,00 h 0 W/m 0,1 km/h (0 Bft)
05.12.2010 06:00 -8,4 C 94 % 1015,7 hPa 0,0 l/m N 0,00 h 0 W/m 0,3 km/h (0 Bft)
05.12.2010 07:00 -8,2 C 94 % 1014,9 hPa 0,0 l/m N 0,00 h 0 W/m 0,3 km/h (0 Bft)
05.12.2010 08:00 -8,0 C 94 % 1014,4 hPa 0,0 l/m N 0,00 h 22 W/m 0,3 km/h (0 Bft)
05.12.2010 09:00 -7,0 C 94 % 1013,5 hPa 0,0 l/m N 0,00 h 77 W/m 0,9 km/h (0 Bft)
05.12.2010 10:00 -5,1 C 95 % 1013,3 hPa 0,0 l/m S 0,00 h 131 W/m 3,5 km/h (1 Bft)
05.12.2010 11:00 -3,5 C 92 % 1012,7 hPa 0,0 l/m SO 0,00 h 137 W/m 8,4 km/h (2 Bft)
05.12.2010 12:00 -2,5 C 87 % 1012,2 hPa 0,0 l/m SW 0,00 h 130 W/m 13,2 km/h (3 Bft)
05.12.2010 13:00 -1,7 C 87 % 1011,6 hPa 0,0 l/m W-SW 0,00 h 89 W/m 7,2 km/h (2 Bft)
05.12.2010 14:00 -0,8 C 84 % 1011,2 hPa 0,0 l/m S-SW 0,00 h 55 W/m 6,6 km/h (2 Bft)
05.12.2010 15:00 -0,9 C 87 % 1010,8 hPa 0,0 l/m SW 0,00 h 14 W/m 5,8 km/h (1 Bft)
05.12.2010 16:00 -0,6 C 89 % 1010,1 hPa 0,0 l/m S 0,00 h 6 W/m 2,5 km/h (1 Bft)
05.12.2010 17:00 -0,9 C 89 % 1009,2 hPa 0,0 l/m N 0,00 h 0 W/m 0,8 km/h (0 Bft)
05.12.2010 18:00 -1,1 C 92 % 1008,1 hPa 0,0 l/m SO 0,00 h 0 W/m 2,5 km/h (1 Bft)
05.12.2010 19:00 -1,0 C 92 % 1007,8 hPa 0,0 l/m N-NW 0,00 h 0 W/m 3,7 km/h (1 Bft)
05.12.2010 20:00 -0,8 C 93 % 1007,4 hPa 0,0 l/m O 0,00 h 0 W/m 2,7 km/h (1 Bft)
05.12.2010 21:00 -0,8 C 94 % 1007,3 hPa 0,2 l/m S-SW 0,00 h 0 W/m 4,9 km/h (1 Bft)
05.12.2010 22:00 0,1 C 97 % 1006,6 hPa 2,6 l/m W-SW 0,00 h 0 W/m 11,2 km/h (2 Bft)
05.12.2010 23:00 0,7 C 97 % 1005,8 hPa 1,8 l/m SW 0,00 h 0 W/m 10,9 km/h (2 Bft)
Min-Datum _ 05.12.10 29.11.10 01.12.10 - - - - 29.11.10
_ Min-Zeit 00:05 14:50 14:45 - - - - 01:40
Minimum _ -11,8 C 77 % 995,5 hPa - - - - 0,0 km/h (0 Bft)
Max-Datum _ 29.11.10 03.12.10 04.12.10 05.12.10 - 29.11.10 30.11.10 29.11.10
_ Max-Zeit 14:45 11:55 10:05 22:25 - 14:20 13:10 13:20
Maximum _ 1,2 C 100 % 1022,1 hPa 2,6 l/m - 0,08 h 364 W/m 30,6 km/h
W-SW (5 Bft)
Durchschnitt _ -4,7 C 91 % 1009,0 hPa #22,0 l/m W-SW #3:40 h 60 W/m 5,6 km/h (1 Bft)